Milesville, South Dakota
Current Conditions -  °F | °C
As of 2:55 AM on Thursday 18 Dec 2014 (Local Time) from KPHP Reporting Station
Overcast Overcast  
Wind Chill: 15°   Ceiling: 1600
Heat Index: 23°   Visibility: 10mi
Dew Point: 20°   Wind: 7mph
Humidity: 88%   Direction: 40°NE
Pressure: 30.06"   Gusts: NA
Location:  44.46°N, 101.68°W
Report Text: KPHP 180955Z AUTO 04006KT 10SM OVC016 M05/M07 A3006 RMK AO2 SLP207 T10501067
Loading
Personal Weather Stations






























Interactive Weather Map New forecast layout! Learn more

10-Day Weather Forecast

Advertisements
Track Severe Weather on mobile